Archival Weather

Sydney Intl

Sydney, Australia (YSSY)

Report from: Sunday, March 19, 2023 2:00 AM AEDT
Current time: Tuesday, February 27, 2024 10:01 PM AEDT

Current weather – Weather history – Daily summaries
Weather forecast

Temperature23.0°C (73.4°F)
Dew point21.0°C (69.8°F)
Winds 6 kts (3.1 m/s, 6.9 mph) North-Northeast (30°)
Clouds Sky clear
Altimeter30.03 in.Hg (1017 mB)
Relative humidity89 %
Density altitude1,140 ft. (347 m)
Remarks Ceiling and visibility OK
Flight conditions Visual Meteorological Conditions
Raw dataYSSY 181500Z 03006KT CAVOK 23/21 Q1017
An error has occurred. This application may no longer respond until reloaded. Reload 🗙